Taipower Prosperity6 — BDAK — position and weather

sailwx.info

Track history (hours):
 
Tides and Currents Weather Stations Pressure Air Temp Water Temp Dewpoint Dewpoint Depression Visibility Wind Speed Wind Dir Waves Ship Positions

Taipower Prosperity6

Last reported at 2018-Jul-20 03:04 UTC. Time now 2018-Jul-20 23:39 UTC.
Position N 22°14' E 119°56'.

Length 235 m; draft 9.1 m.

Type: Cargo ship. MMSI: 416441000.

Date/timePositionNaut miles runAvg speedWind from/ knotsBaromVisibWave heightAir tempDewpointWater temp
2018-Jul-20 03:04N 22°14' E 119°56'211.7
2018-Jul-20 02:52N 22°17' E 119°56'512.0
2018-Jul-20 02:25N 22°22' E 119°56'512.4
2018-Jul-20 02:00N 22°27' E 119°56'612.3
2018-Jul-20 01:30N 22°33' E 119°55'611.9
2018-Jul-20 01:00N 22°39' E 119°55'612.2
2018-Jul-20 00:30N 22°45' E 119°54'612.6
2018-Jul-20 00:00N 22°52' E 119°54'  
2018-Jul-14 00:47N 22°54' E 119°57'412.0
2018-Jul-14 00:28N 22°50' E 119°57'612.4
2018-Jul-14 00:00N 22°44' E 119°57'611.3
2018-Jul-13 23:30N 22°38' E 119°57'510.1
2018-Jul-13 23:00N 22°34' E 119°58'510.1
2018-Jul-13 22:30N 22°29' E 120°01'5 9.9
2018-Jul-13 22:00N 22°25' E 120°05'510.4
2018-Jul-13 21:30N 22°21' E 120°08'611.4
2018-Jul-13 21:00N 22°17' E 120°12'612.0
2018-Jul-13 20:30N 22°12' E 120°15'611.8
2018-Jul-13 20:00N 22°07' E 120°19'  
Track history (hours):
 
Tides and Currents Weather Stations Pressure Air Temp Water Temp Dewpoint Dewpoint Depression Visibility Wind Speed Wind Dir Waves Ship Positions

Taipower Prosperity6

Last reported at 2018-Jul-20 03:04 UTC. Time now 2018-Jul-20 23:39 UTC.
Position N 22°14' E 119°56'.

Length 235 m; draft 9.1 m.

Type: Cargo ship. MMSI: 416441000.

Date/timePositionNaut miles runAvg speedWind from/ knotsBaromVisibWave heightAir tempDewpointWater temp
2018-Jul-20 03:04N 22°14' E 119°56'211.7
2018-Jul-20 02:52N 22°17' E 119°56'512.0
2018-Jul-20 02:25N 22°22' E 119°56'512.4
2018-Jul-20 02:00N 22°27' E 119°56'612.3
2018-Jul-20 01:30N 22°33' E 119°55'611.9
2018-Jul-20 01:00N 22°39' E 119°55'612.2
2018-Jul-20 00:30N 22°45' E 119°54'612.6
2018-Jul-20 00:00N 22°52' E 119°54'  
2018-Jul-14 00:47N 22°54' E 119°57'412.0
2018-Jul-14 00:28N 22°50' E 119°57'612.4
2018-Jul-14 00:00N 22°44' E 119°57'611.3
2018-Jul-13 23:30N 22°38' E 119°57'510.1
2018-Jul-13 23:00N 22°34' E 119°58'510.1
2018-Jul-13 22:30N 22°29' E 120°01'5 9.9
2018-Jul-13 22:00N 22°25' E 120°05'510.4
2018-Jul-13 21:30N 22°21' E 120°08'611.4
2018-Jul-13 21:00N 22°17' E 120°12'612.0
2018-Jul-13 20:30N 22°12' E 120°15'611.8
2018-Jul-13 20:00N 22°07' E 120°19'  

Dump ship's entire track history